createdAt,value
2018-09-21T00:00:27.153Z,16.56
2018-09-21T00:01:27.149Z,16.56
2018-09-21T00:02:27.144Z,16.57
2018-09-21T00:03:27.139Z,16.53
2018-09-21T00:04:27.134Z,16.64
2018-09-21T00:05:27.144Z,16.52
2018-09-21T00:06:27.124Z,16.58
2018-09-21T00:07:26.616Z,16.58
2018-09-21T00:08:26.859Z,16.6
2018-09-21T00:09:26.855Z,16.63
2018-09-21T00:10:27.114Z,16.53
2018-09-21T00:11:27.139Z,16.57
2018-09-21T00:12:26.843Z,16.5
2018-09-21T00:13:27.084Z,16.49
2018-09-21T00:14:27.081Z,16.46
2018-09-21T00:15:27.081Z,16.49
2018-09-21T00:16:27.071Z,16.5
2018-09-21T00:17:27.069Z,16.48
2018-09-21T00:18:27.058Z,16.45
2018-09-21T00:19:27.052Z,16.5
2018-09-21T00:20:27.052Z,16.45
2018-09-21T00:21:27.042Z,16.48
2018-09-21T00:22:27.038Z,16.48
2018-09-21T00:23:27.031Z,16.41
2018-09-21T00:24:27.030Z,16.45
2018-09-21T00:25:27.033Z,16.46
2018-09-21T00:26:26.766Z,16.45
2018-09-21T00:27:26.505Z,16.39
2018-09-21T00:28:27.257Z,16.38
2018-09-21T00:29:26.998Z,16.42
2018-09-21T00:30:26.993Z,16.39
2018-09-21T00:31:26.736Z,16.39
2018-09-21T00:32:26.985Z,16.31
2018-09-21T00:33:26.977Z,16.34
2018-09-21T00:34:26.971Z,16.34
2018-09-21T00:35:26.974Z,16.34
2018-09-21T00:36:26.968Z,16.38
2018-09-21T00:37:26.954Z,16.23
2018-09-21T00:38:26.953Z,16.27
2018-09-21T00:39:26.693Z,16.21
2018-09-21T00:40:26.942Z,16.28
2018-09-21T00:41:26.933Z,16.25
2018-09-21T00:42:26.931Z,16.21
2018-09-21T00:43:26.924Z,16.15
2018-09-21T00:44:26.927Z,16.2
2018-09-21T00:45:26.665Z,16.23
2018-09-21T00:46:26.908Z,16.08
2018-09-21T00:47:26.650Z,16.27
2018-09-21T00:48:26.896Z,16.11
2018-09-21T00:49:26.896Z,16.17
2018-09-21T00:50:26.891Z,16.11
2018-09-21T00:51:26.883Z,16.11
2018-09-21T00:52:26.877Z,16.12
2018-09-21T00:53:26.885Z,16.09
2018-09-21T00:54:26.875Z,16.07
2018-09-21T00:55:26.866Z,16.14
2018-09-21T00:56:26.858Z,16.14
2018-09-21T00:57:26.596Z,16.04
2018-09-21T00:58:26.850Z,16.05
2018-09-21T00:59:27.092Z,15.94
2018-09-21T01:00:26.838Z,15.96
2018-09-21T01:01:26.841Z,16.01
2018-09-21T01:02:26.819Z,16.05
2018-09-21T01:03:26.815Z,16.04
2018-09-21T01:04:26.560Z,15.97
2018-09-21T01:05:26.813Z,16.07
2018-09-21T01:06:26.805Z,16.02
2018-09-21T01:07:26.793Z,16.05
2018-09-21T01:08:26.787Z,16.02
2018-09-21T01:09:26.788Z,15.93
2018-09-21T01:10:26.543Z,15.96
2018-09-21T01:11:26.775Z,16
2018-09-21T01:12:26.523Z,16.07
2018-09-21T01:13:26.508Z,16.01
2018-09-21T01:14:26.754Z,16.01
2018-09-21T01:15:26.748Z,15.97
2018-09-21T01:16:26.248Z,15.94
2018-09-21T01:17:26.735Z,16.02
2018-09-21T01:18:26.732Z,15.92
2018-09-21T01:19:26.476Z,15.96
2018-09-21T01:20:26.721Z,15.96
2018-09-21T01:21:26.715Z,16.02
2018-09-21T01:22:26.713Z,16.08
2018-09-21T01:23:26.454Z,15.94
2018-09-21T01:24:26.447Z,15.97
2018-09-21T01:25:26.440Z,15.97
2018-09-21T01:26:26.435Z,16.04
2018-09-21T01:27:26.683Z,16.04
2018-09-21T01:28:26.684Z,16.01
2018-09-21T01:29:26.672Z,15.97
2018-09-21T01:30:26.919Z,16
2018-09-21T01:31:26.677Z,16.14
2018-09-21T01:32:26.653Z,16.07
2018-09-21T01:33:26.651Z,16.04
2018-09-21T01:34:26.455Z,16.07
2018-09-21T01:35:26.385Z,16.01
2018-09-21T01:36:26.127Z,16.07
2018-09-21T01:37:26.374Z,16.08
2018-09-21T01:38:26.622Z,16.08
2018-09-21T01:39:26.619Z,16.09
2018-09-21T01:40:26.612Z,16.15
2018-09-21T01:41:26.352Z,16.11
2018-09-21T01:42:26.609Z,16.08
2018-09-21T01:43:26.341Z,16.08
2018-09-21T01:44:26.584Z,16.04
2018-09-21T01:45:26.578Z,16.04
2018-09-21T01:46:26.574Z,16.04
2018-09-21T01:47:26.570Z,16.09
2018-09-21T01:48:26.563Z,16.05
2018-09-21T01:49:26.559Z,15.96
2018-09-21T01:50:26.061Z,16
2018-09-21T01:51:26.297Z,15.94
2018-09-21T01:52:26.540Z,16.02
2018-09-21T01:53:26.541Z,15.93
2018-09-21T01:54:26.530Z,16.05
2018-09-21T01:55:26.526Z,16.02
2018-09-21T01:56:26.519Z,15.94
2018-09-21T01:57:26.515Z,16.08
2018-09-21T01:58:26.257Z,16.11
2018-09-21T01:59:26.249Z,16.09
2018-09-21T02:00:26.496Z,16.11
2018-09-21T02:01:26.238Z,16.07
2018-09-21T02:02:26.483Z,16.08
2018-09-21T02:03:26.484Z,16.11
2018-09-21T02:04:26.473Z,16.11
2018-09-21T02:05:26.217Z,16.17
2018-09-21T02:06:26.214Z,16.17
2018-09-21T02:07:26.222Z,16.11
2018-09-21T02:08:26.450Z,16.09
2018-09-21T02:09:26.204Z,16.09
2018-09-21T02:10:26.442Z,16.15
2018-09-21T02:11:26.434Z,16.07
2018-09-21T02:12:26.439Z,16.2
2018-09-21T02:13:26.175Z,16.17
2018-09-21T02:14:26.166Z,16.09
2018-09-21T02:15:26.421Z,16.25
2018-09-21T02:16:26.426Z,16.28
2018-09-21T02:17:26.410Z,16.2
2018-09-21T02:18:26.155Z,16.31
2018-09-21T02:19:26.139Z,16.28
2018-09-21T02:20:26.382Z,16.15
2018-09-21T02:21:26.394Z,16.21
2018-09-21T02:22:26.372Z,16.21
2018-09-21T02:23:26.115Z,16.25
2018-09-21T02:24:26.109Z,16.34
2018-09-21T02:25:26.357Z,16.27
2018-09-21T02:26:26.348Z,16.24
2018-09-21T02:27:26.092Z,16.25
2018-09-21T02:28:26.088Z,16.27
2018-09-21T02:29:26.333Z,16.3
2018-09-21T02:30:26.339Z,16.31
2018-09-21T02:31:26.073Z,16.38
2018-09-21T02:32:26.326Z,16.35
2018-09-21T02:33:26.310Z,16.33
2018-09-21T02:34:26.312Z,16.35
2018-09-21T02:35:26.104Z,16.35
2018-09-21T02:36:25.792Z,16.45
2018-09-21T02:37:26.306Z,16.41
2018-09-21T02:38:26.284Z,16.45
2018-09-21T02:39:26.282Z,16.41
2018-09-21T02:40:26.021Z,16.43
2018-09-21T02:41:26.566Z,16.43
2018-09-21T02:42:26.008Z,16.42
2018-09-21T02:43:26.262Z,16.41
2018-09-21T02:44:26.005Z,16.39
2018-09-21T02:45:26.255Z,16.45
2018-09-21T02:46:26.002Z,16.46
2018-09-21T02:47:26.237Z,16.42
2018-09-21T02:48:26.233Z,16.43
2018-09-21T02:49:25.977Z,16.43
2018-09-21T02:50:26.224Z,16.49
2018-09-21T02:51:26.215Z,16.57
2018-09-21T02:52:26.207Z,16.5
2018-09-21T02:53:25.952Z,16.58
2018-09-21T02:54:26.211Z,16.6
2018-09-21T02:55:26.195Z,16.6
2018-09-21T02:56:26.218Z,16.57
2018-09-21T02:57:26.195Z,16.52
2018-09-21T02:58:26.183Z,16.56
2018-09-21T02:59:26.170Z,16.61
2018-09-21T03:00:26.588Z,16.67
2018-09-21T03:01:25.907Z,16.68
2018-09-21T03:02:26.156Z,16.66
2018-09-21T03:03:26.157Z,16.66
2018-09-21T03:04:26.142Z,16.7
2018-09-21T03:05:26.147Z,16.71
2018-09-21T03:06:26.135Z,16.71
2018-09-21T03:07:26.132Z,16.71
2018-09-21T03:08:26.121Z,16.71
2018-09-21T03:09:26.118Z,16.73
2018-09-21T03:10:25.859Z,16.67
2018-09-21T03:11:25.854Z,16.73
2018-09-21T03:12:25.855Z,16.7
2018-09-21T03:13:26.274Z,16.76
2018-09-21T03:14:26.091Z,16.75
2018-09-21T03:15:26.087Z,16.76
2018-09-21T03:16:26.086Z,16.81
2018-09-21T03:17:26.086Z,16.73
2018-09-21T03:18:26.071Z,16.71
2018-09-21T03:19:25.563Z,16.73
2018-09-21T03:20:26.069Z,16.76
2018-09-21T03:21:26.052Z,16.73
2018-09-21T03:22:26.049Z,16.73
2018-09-21T03:23:26.076Z,16.7
2018-09-21T03:24:26.040Z,16.71
2018-09-21T03:25:25.791Z,16.78
2018-09-21T03:26:26.078Z,16.71
2018-09-21T03:27:26.026Z,16.81
2018-09-21T03:28:26.017Z,16.71
2018-09-21T03:29:25.756Z,16.75
2018-09-21T03:30:25.502Z,16.76
2018-09-21T03:31:25.748Z,16.76
2018-09-21T03:32:26.024Z,16.76
2018-09-21T03:33:25.988Z,16.79
2018-09-21T03:34:25.732Z,16.75
2018-09-21T03:35:26.284Z,16.81
2018-09-21T03:36:25.971Z,16.82
2018-09-21T03:37:25.967Z,16.81
2018-09-21T03:38:25.967Z,16.78
2018-09-21T03:39:25.958Z,16.85
2018-09-21T03:40:25.950Z,16.81
2018-09-21T03:41:25.944Z,16.83
2018-09-21T03:42:25.946Z,16.86
2018-09-21T03:43:25.937Z,16.86
2018-09-21T03:44:25.934Z,16.81
2018-09-21T03:45:25.673Z,16.81
2018-09-21T03:46:25.926Z,16.86
2018-09-21T03:47:25.917Z,16.83
2018-09-21T03:48:25.907Z,16.81
2018-09-21T03:49:25.916Z,16.81
2018-09-21T03:50:25.905Z,16.79
2018-09-21T03:51:25.897Z,16.79
2018-09-21T03:52:25.897Z,16.83
2018-09-21T03:53:25.884Z,16.86
2018-09-21T03:54:25.881Z,16.86
2018-09-21T03:55:25.875Z,16.88
2018-09-21T03:56:25.875Z,16.88
2018-09-21T03:57:25.859Z,16.89
2018-09-21T03:58:25.871Z,16.86
2018-09-21T03:59:25.603Z,16.97
2018-09-21T04:00:25.352Z,16.93
2018-09-21T04:01:25.839Z,16.93
2018-09-21T04:02:25.837Z,16.97
2018-09-21T04:03:25.834Z,16.91
2018-09-21T04:04:25.831Z,16.93
2018-09-21T04:05:25.818Z,16.89
2018-09-21T04:06:25.816Z,16.89
2018-09-21T04:07:25.822Z,16.91
2018-09-21T04:08:25.553Z,16.79
2018-09-21T04:09:25.797Z,16.82
2018-09-21T04:10:25.793Z,16.81
2018-09-21T04:11:25.792Z,16.82
2018-09-21T04:12:25.789Z,16.83
2018-09-21T04:13:25.787Z,16.79
2018-09-21T04:14:25.781Z,16.86
2018-09-21T04:15:25.517Z,16.75
2018-09-21T04:16:25.760Z,16.75
2018-09-21T04:17:25.255Z,16.71
2018-09-21T04:18:25.752Z,16.83
2018-09-21T04:19:25.747Z,16.75
2018-09-21T04:20:25.747Z,16.85
2018-09-21T04:21:25.233Z,16.83
2018-09-21T04:22:25.738Z,16.83
2018-09-21T04:23:25.726Z,16.83
2018-09-21T04:24:25.720Z,16.82
2018-09-21T04:25:25.468Z,16.86
2018-09-21T04:26:25.714Z,16.85
2018-09-21T04:27:25.712Z,16.86
2018-09-21T04:28:25.710Z,16.81
2018-09-21T04:29:25.694Z,16.83
2018-09-21T04:30:25.694Z,16.83
2018-09-21T04:31:25.429Z,16.85
2018-09-21T04:32:25.680Z,16.86
2018-09-21T04:33:25.696Z,16.82
2018-09-21T04:34:25.678Z,16.83
2018-09-21T04:35:25.420Z,16.71
2018-09-21T04:36:25.415Z,16.82
2018-09-21T04:37:25.651Z,16.81
2018-09-21T04:38:25.649Z,16.83
2018-09-21T04:39:25.639Z,16.81
2018-09-21T04:40:25.643Z,16.82
2018-09-21T04:41:25.378Z,16.89
2018-09-21T04:42:25.625Z,16.89
2018-09-21T04:43:25.619Z,16.91
2018-09-21T04:44:25.614Z,16.96
2018-09-21T04:45:25.608Z,16.89
2018-09-21T04:46:25.608Z,16.89
2018-09-21T04:47:25.600Z,16.85
2018-09-21T04:48:25.593Z,16.86
2018-09-21T04:49:25.590Z,16.93
2018-09-21T04:50:25.339Z,16.97
2018-09-21T04:51:25.578Z,16.88
2018-09-21T04:52:25.463Z,16.81
2018-09-21T04:53:25.567Z,16.81
2018-09-21T04:54:25.562Z,16.81
2018-09-21T04:55:25.555Z,16.85
2018-09-21T04:56:25.551Z,16.83
2018-09-21T04:57:25.553Z,16.83
2018-09-21T04:58:25.539Z,16.76
2018-09-21T04:59:25.536Z,16.82
2018-09-21T05:00:25.531Z,16.89
2018-09-21T05:01:25.579Z,16.86
2018-09-21T05:02:25.272Z,16.91
2018-09-21T05:03:25.519Z,16.89
2018-09-21T05:04:25.256Z,16.97
2018-09-21T05:05:25.551Z,17
2018-09-21T05:06:25.507Z,16.98
2018-09-21T05:07:25.500Z,16.98
2018-09-21T05:08:25.737Z,17.04
2018-09-21T05:09:25.484Z,17.04
2018-09-21T05:10:25.230Z,17.04
2018-09-21T05:11:25.480Z,17.03
2018-09-21T05:12:25.467Z,17.08
2018-09-21T05:13:25.462Z,17.11
2018-09-21T05:14:25.458Z,17.16
2018-09-21T05:15:25.453Z,17.07
2018-09-21T05:16:25.451Z,17.18
2018-09-21T05:17:25.444Z,17.06
2018-09-21T05:18:25.442Z,17.12
2018-09-21T05:19:25.442Z,17.22
2018-09-21T05:20:25.429Z,17.31
2018-09-21T05:21:25.172Z,17.3
2018-09-21T05:22:25.165Z,17.36
2018-09-21T05:23:25.420Z,17.43
2018-09-21T05:24:25.408Z,17.37
2018-09-21T05:25:24.900Z,17.43
2018-09-21T05:26:25.400Z,17.58
2018-09-21T05:27:25.464Z,17.68
2018-09-21T05:28:25.139Z,17.71
2018-09-21T05:29:25.384Z,17.78
2018-09-21T05:30:25.381Z,17.86
2018-09-21T05:31:25.122Z,17.9
2018-09-21T05:32:25.373Z,18.07
2018-09-21T05:33:25.368Z,18.21
2018-09-21T05:34:25.654Z,18.32
2018-09-21T05:35:25.361Z,18.44
2018-09-21T05:36:25.354Z,18.57
2018-09-21T05:37:25.348Z,18.65
2018-09-21T05:38:25.348Z,18.81
2018-09-21T05:39:25.589Z,19
2018-09-21T05:40:25.338Z,19.02
2018-09-21T05:41:25.080Z,19.26
2018-09-21T05:42:25.335Z,19.32
2018-09-21T05:43:25.075Z,19.51
2018-09-21T05:44:25.322Z,19.81
2018-09-21T05:45:24.814Z,19.87
2018-09-21T05:46:25.319Z,20.05
2018-09-21T05:47:25.316Z,20.14
2018-09-21T05:48:25.310Z,20.2
2018-09-21T05:49:25.308Z,20.32
2018-09-21T05:50:25.304Z,20.52
2018-09-21T05:51:25.301Z,20.61
2018-09-21T05:52:25.047Z,20.88
2018-09-21T05:53:25.295Z,20.95
2018-09-21T05:54:25.294Z,21.17
2018-09-21T05:55:25.038Z,21.37
2018-09-21T05:56:25.292Z,21.46
2018-09-21T05:57:25.034Z,21.68
2018-09-21T05:58:25.283Z,21.79
2018-09-21T05:59:25.282Z,22.02
2018-09-21T06:00:25.285Z,22.15
2018-09-21T06:01:25.280Z,22.25
2018-09-21T06:02:25.336Z,22.43
2018-09-21T06:03:25.276Z,22.55
2018-09-21T06:04:25.023Z,22.64
2018-09-21T06:05:25.022Z,22.67
2018-09-21T06:06:25.019Z,22.88
2018-09-21T06:07:25.271Z,23
2018-09-21T06:08:25.324Z,23.05
2018-09-21T06:09:25.279Z,23.22
2018-09-21T06:10:25.522Z,23.27
2018-09-21T06:11:25.268Z,23.35
2018-09-21T06:12:25.022Z,23.47
2018-09-21T06:13:25.268Z,23.53
2018-09-21T06:14:25.271Z,23.58
2018-09-21T06:15:25.269Z,23.61
2018-09-21T06:16:25.264Z,23.61
2018-09-21T06:17:25.016Z,23.68
2018-09-21T06:18:24.762Z,23.63
2018-09-21T06:19:25.178Z,23.69
2018-09-21T06:20:25.266Z,23.73
2018-09-21T06:21:25.269Z,23.73
2018-09-21T06:22:25.285Z,23.8
2018-09-21T06:23:25.018Z,23.83
2018-09-21T06:24:24.762Z,23.83
2018-09-21T06:25:24.761Z,23.93
2018-09-21T06:26:25.274Z,24.09
2018-09-21T06:27:25.268Z,24.1
2018-09-21T06:28:25.267Z,24.2
2018-09-21T06:29:25.269Z,24.28
2018-09-21T06:30:24.765Z,24.42
2018-09-21T06:31:25.020Z,24.52
2018-09-21T06:32:25.270Z,24.64
2018-09-21T06:33:24.768Z,24.76
2018-09-21T06:34:25.022Z,24.88
2018-09-21T06:35:25.274Z,24.99
2018-09-21T06:36:25.280Z,25.05
2018-09-21T06:37:25.025Z,25.18
2018-09-21T06:38:25.026Z,25.36
2018-09-21T06:39:25.286Z,25.3
2018-09-21T06:40:25.285Z,25.52
2018-09-21T06:41:25.287Z,25.62
2018-09-21T06:42:25.347Z,25.69
2018-09-21T06:43:25.037Z,25.8
2018-09-21T06:44:25.395Z,26.09
2018-09-21T06:45:25.051Z,26.28
2018-09-21T06:46:25.350Z,26.37
2018-09-21T06:47:25.103Z,26.52
2018-09-21T06:48:25.305Z,26.62
2018-09-21T06:49:25.308Z,26.67
2018-09-21T06:50:25.059Z,26.82
2018-09-21T06:51:25.316Z,27
2018-09-21T06:52:25.067Z,27.07
2018-09-21T06:53:25.328Z,27.1
2018-09-21T06:54:24.823Z,27.31
2018-09-21T06:55:25.333Z,27.29
2018-09-21T06:56:25.343Z,27.44
2018-09-21T06:57:25.088Z,27.57
2018-09-21T06:58:25.093Z,27.72
2018-09-21T06:59:25.360Z,27.77
2018-09-21T07:00:25.377Z,27.82
2018-09-21T07:01:25.516Z,27.81
2018-09-21T07:02:25.368Z,27.92
2018-09-21T07:03:25.372Z,28
2018-09-21T07:04:25.377Z,28.04
2018-09-21T07:05:25.133Z,28.18
2018-09-21T07:06:25.394Z,28.29
2018-09-21T07:07:25.399Z,28.46
2018-09-21T07:08:25.433Z,28.52
2018-09-21T07:09:25.411Z,28.59
2018-09-21T07:10:25.426Z,28.76
2018-09-21T07:11:25.430Z,28.93
2018-09-21T07:12:25.438Z,28.95
2018-09-21T07:13:25.446Z,29.06
2018-09-21T07:14:25.446Z,29.18
2018-09-21T07:15:25.454Z,29.21
2018-09-21T07:16:25.465Z,29.36
2018-09-21T07:17:25.480Z,29.49
2018-09-21T07:18:25.477Z,29.58
2018-09-21T07:19:25.483Z,29.65
2018-09-21T07:20:25.497Z,29.65
2018-09-21T07:21:25.503Z,29.8
2018-09-21T07:22:25.509Z,29.92
2018-09-21T07:23:25.268Z,29.97
2018-09-21T07:24:25.528Z,30.16
2018-09-21T07:25:25.535Z,30.26
2018-09-21T07:26:25.542Z,30.49
2018-09-21T07:27:25.563Z,30.64
2018-09-21T07:28:25.564Z,30.75
2018-09-21T07:29:25.572Z,30.97
2018-09-21T07:30:25.581Z,30.99
2018-09-21T07:31:25.786Z,31.14
2018-09-21T07:32:25.596Z,31.35
2018-09-21T07:33:25.607Z,31.31
2018-09-21T07:34:25.617Z,31.21
2018-09-21T07:35:25.629Z,31.19
2018-09-21T07:36:25.129Z,31.06
2018-09-21T07:37:25.494Z,30.98
2018-09-21T07:38:25.653Z,30.91
2018-09-21T07:39:25.657Z,30.94
2018-09-21T07:40:25.674Z,30.97
2018-09-21T07:41:25.677Z,30.91
2018-09-21T07:42:25.686Z,30.88
2018-09-21T07:43:25.696Z,30.92
2018-09-21T07:44:25.475Z,30.92
2018-09-21T07:45:25.714Z,30.88
2018-09-21T07:46:25.773Z,30.86
2018-09-21T07:47:25.477Z,30.84
2018-09-21T07:48:25.489Z,30.77
2018-09-21T07:49:25.747Z,30.58
2018-09-21T07:50:25.897Z,30.49
2018-09-21T07:51:25.763Z,30.46
2018-09-21T07:52:25.774Z,30.24
2018-09-21T07:53:25.527Z,30.16
2018-09-21T07:54:26.017Z,30.11
2018-09-21T07:55:25.795Z,29.9
2018-09-21T07:56:25.804Z,29.82
2018-09-21T07:57:25.813Z,29.71
2018-09-21T07:58:25.820Z,29.6
2018-09-21T07:59:25.578Z,29.36
2018-09-21T08:00:25.583Z,29.26
2018-09-21T08:01:25.592Z,29.14
2018-09-21T08:02:25.600Z,29.15
2018-09-21T08:03:25.603Z,28.96
2018-09-21T08:04:25.612Z,28.83
2018-09-21T08:05:25.619Z,28.71
2018-09-21T08:06:25.880Z,28.61
2018-09-21T08:07:26.095Z,28.59
2018-09-21T08:08:25.889Z,28.54
2018-09-21T08:09:25.898Z,28.39
2018-09-21T08:10:25.902Z,28.3
2018-09-21T08:11:25.659Z,28.25
2018-09-21T08:12:25.660Z,28.21
2018-09-21T08:13:25.665Z,28.06
2018-09-21T08:14:25.673Z,28.03
2018-09-21T08:15:25.929Z,28.06
2018-09-21T08:16:25.429Z,28.03
2018-09-21T08:17:25.940Z,27.9
2018-09-21T08:18:25.942Z,27.79
2018-09-21T08:19:25.799Z,27.67
2018-09-21T08:20:25.954Z,27.75
2018-09-21T08:21:25.706Z,27.63
2018-09-21T08:22:25.957Z,27.57
2018-09-21T08:23:26.003Z,27.54
2018-09-21T08:24:25.965Z,27.54
2018-09-21T08:25:25.974Z,27.43
2018-09-21T08:26:25.725Z,27.46
2018-09-21T08:27:25.977Z,27.46
2018-09-21T08:28:25.726Z,27.44
2018-09-21T08:29:25.983Z,27.5
2018-09-21T08:30:26.001Z,27.5
2018-09-21T08:31:26.167Z,27.57
2018-09-21T08:32:25.992Z,27.54
2018-09-21T08:33:26.154Z,27.55
2018-09-21T08:34:26.002Z,27.6
2018-09-21T08:35:26.008Z,27.54
2018-09-21T08:36:26.007Z,27.6
2018-09-21T08:37:26.028Z,27.59
2018-09-21T08:38:25.762Z,27.59
2018-09-21T08:39:26.012Z,27.67
2018-09-21T08:40:25.762Z,27.6
2018-09-21T08:41:26.032Z,27.57
2018-09-21T08:42:26.024Z,27.55
2018-09-21T08:43:25.772Z,27.6
2018-09-21T08:44:26.026Z,27.44
2018-09-21T08:45:26.170Z,27.5
2018-09-21T08:46:26.282Z,27.46
2018-09-21T08:47:26.040Z,27.44
2018-09-21T08:48:25.786Z,27.44
2018-09-21T08:49:25.790Z,27.43
2018-09-21T08:50:26.043Z,27.4
2018-09-21T08:51:25.794Z,27.49
2018-09-21T08:52:26.048Z,27.49
2018-09-21T08:53:25.799Z,27.5
2018-09-21T08:54:26.055Z,27.63
2018-09-21T08:55:26.057Z,27.72
2018-09-21T08:56:26.059Z,27.67
2018-09-21T08:57:26.065Z,27.87
2018-09-21T08:58:25.559Z,27.82
2018-09-21T08:59:25.817Z,27.99
2018-09-21T09:00:26.080Z,28
2018-09-21T09:01:26.073Z,28.06
2018-09-21T09:02:25.833Z,28.04
2018-09-21T09:03:26.351Z,28.12
2018-09-21T09:04:26.079Z,28.11
2018-09-21T09:05:26.084Z,28.17
2018-09-21T09:06:26.088Z,28.19
2018-09-21T09:07:26.093Z,28.25
2018-09-21T09:08:26.106Z,28.24
2018-09-21T09:09:26.095Z,28.25
2018-09-21T09:10:25.846Z,28.24
2018-09-21T09:11:26.100Z,28.29
2018-09-21T09:12:26.103Z,28.37
2018-09-21T09:13:25.852Z,28.37
2018-09-21T09:14:26.109Z,28.41
2018-09-21T09:15:25.864Z,28.37
2018-09-21T09:16:26.113Z,28.41
2018-09-21T09:17:26.121Z,28.39
2018-09-21T09:18:26.126Z,28.48
2018-09-21T09:19:26.122Z,28.46
2018-09-21T09:20:26.159Z,28.48
2018-09-21T09:21:25.875Z,28.49
2018-09-21T09:22:26.128Z,28.4
2018-09-21T09:23:25.885Z,28.48
2018-09-21T09:24:25.647Z,28.43
2018-09-21T09:25:25.888Z,28.56
2018-09-21T09:26:26.202Z,28.41
2018-09-21T09:27:25.893Z,28.52
2018-09-21T09:28:26.153Z,28.51
2018-09-21T09:29:25.898Z,28.54
2018-09-21T09:30:25.903Z,28.67
2018-09-21T09:31:25.908Z,28.61
2018-09-21T09:32:26.163Z,28.61
2018-09-21T09:33:26.165Z,28.68
2018-09-21T09:34:26.163Z,28.71
2018-09-21T09:35:26.168Z,28.74
2018-09-21T09:36:26.171Z,28.77
2018-09-21T09:37:26.177Z,28.88
2018-09-21T09:38:25.925Z,28.76
2018-09-21T09:39:25.926Z,28.89
2018-09-21T09:40:25.931Z,28.96
2018-09-21T09:41:26.186Z,28.88
2018-09-21T09:42:26.187Z,28.83
2018-09-21T09:43:26.521Z,28.88
2018-09-21T09:44:26.198Z,28.9
2018-09-21T09:45:26.203Z,28.9
2018-09-21T09:46:26.203Z,28.93
2018-09-21T09:47:26.204Z,28.9
2018-09-21T09:48:26.542Z,28.95
2018-09-21T09:49:26.437Z,29.02
2018-09-21T09:50:26.215Z,29.08
2018-09-21T09:51:26.215Z,29.05
2018-09-21T09:52:25.969Z,29.12
2018-09-21T09:53:26.226Z,29.23
2018-09-21T09:54:26.233Z,29.37
2018-09-21T09:55:26.231Z,29.34
2018-09-21T09:56:26.230Z,29.39
2018-09-21T09:57:26.235Z,29.51
2018-09-21T09:58:26.239Z,29.52
2018-09-21T09:59:26.250Z,29.64
2018-09-21T10:00:25.995Z,29.7
2018-09-21T10:01:26.250Z,29.7
2018-09-21T10:02:26.254Z,29.73
2018-09-21T10:03:26.369Z,29.82
2018-09-21T10:04:26.259Z,29.94
2018-09-21T10:05:26.263Z,30.08
2018-09-21T10:06:26.019Z,30.16
2018-09-21T10:07:26.272Z,30.23
2018-09-21T10:08:26.275Z,30.38
2018-09-21T10:09:26.025Z,30.47
2018-09-21T10:10:26.480Z,30.46
2018-09-21T10:11:26.288Z,30.62
2018-09-21T10:12:26.290Z,30.72
2018-09-21T10:13:26.303Z,30.84
2018-09-21T10:14:26.297Z,30.94
2018-09-21T10:15:26.302Z,31.01
2018-09-21T10:16:26.493Z,30.97
2018-09-21T10:17:26.311Z,30.98
2018-09-21T10:18:26.324Z,30.94
2018-09-21T10:19:26.329Z,30.92
2018-09-21T10:20:26.076Z,30.92
2018-09-21T10:21:26.337Z,30.97
2018-09-21T10:22:26.337Z,30.99
2018-09-21T10:23:26.341Z,31.02
2018-09-21T10:24:26.346Z,30.95
2018-09-21T10:25:26.097Z,31.01
2018-09-21T10:26:26.101Z,30.99
2018-09-21T10:27:26.450Z,30.95
2018-09-21T10:28:27.075Z,31.02
2018-09-21T10:29:25.864Z,30.97
2018-09-21T10:30:26.378Z,31.01
2018-09-21T10:31:26.500Z,31.09
2018-09-21T10:32:26.385Z,31.07
2018-09-21T10:33:26.250Z,31.13
2018-09-21T10:34:26.469Z,31.2
2018-09-21T10:35:26.231Z,31.14
2018-09-21T10:36:26.420Z,31.07
2018-09-21T10:37:26.452Z,31.19
2018-09-21T10:38:26.419Z,31.17
2018-09-21T10:39:26.577Z,31.17
2018-09-21T10:40:26.308Z,31.14
2018-09-21T10:41:26.454Z,31.19
2018-09-21T10:42:26.543Z,31.19
2018-09-21T10:43:26.439Z,31.2
2018-09-21T10:44:26.446Z,31.34
2018-09-21T10:45:26.454Z,31.2
2018-09-21T10:46:26.456Z,31.23
2018-09-21T10:47:26.208Z,31.32
2018-09-21T10:48:26.216Z,31.36
2018-09-21T10:49:26.472Z,31.35
2018-09-21T10:50:26.223Z,31.43
2018-09-21T10:51:26.480Z,31.62
2018-09-21T10:52:26.235Z,31.65
2018-09-21T10:53:26.494Z,31.78
2018-09-21T10:54:26.245Z,31.75
2018-09-21T10:55:26.505Z,31.88
2018-09-21T10:56:26.507Z,31.86
2018-09-21T10:57:26.514Z,31.92
2018-09-21T10:58:26.326Z,31.85
2018-09-21T10:59:26.527Z,31.99
2018-09-21T11:00:26.661Z,31.91
2018-09-21T11:01:26.537Z,32.01
2018-09-21T11:02:26.544Z,32.01
2018-09-21T11:03:26.560Z,32.06
2018-09-21T11:04:26.555Z,32.03
2018-09-21T11:05:26.564Z,32.01
2018-09-21T11:06:26.572Z,32.01
2018-09-21T11:07:26.767Z,32.03
2018-09-21T11:08:26.586Z,32.03
2018-09-21T11:09:26.636Z,32
2018-09-21T11:10:26.337Z,32.13
2018-09-21T11:11:26.598Z,32.13
2018-09-21T11:12:26.349Z,32.11
2018-09-21T11:13:26.605Z,32.22
2018-09-21T11:14:26.616Z,32.28
2018-09-21T11:15:26.620Z,32.14
2018-09-21T11:16:26.624Z,32.18
2018-09-21T11:17:26.629Z,32.13
2018-09-21T11:18:26.635Z,32.22
2018-09-21T11:19:26.640Z,32.21
2018-09-21T11:20:26.403Z,32.18
2018-09-21T11:21:26.658Z,32.14
2018-09-21T11:22:26.407Z,32.25
2018-09-21T11:23:26.671Z,32.32
2018-09-21T11:24:26.687Z,32.35
2018-09-21T11:25:26.676Z,32.37
2018-09-21T11:26:26.683Z,32.3
2018-09-21T11:27:26.687Z,32.28
2018-09-21T11:28:26.700Z,32.28
2018-09-21T11:29:26.449Z,32.35
2018-09-21T11:30:26.711Z,32.41
2018-09-21T11:31:26.459Z,32.38
2018-09-21T11:32:26.719Z,32.44
2018-09-21T11:33:26.726Z,32.41
2018-09-21T11:34:26.732Z,32.28
2018-09-21T11:35:26.734Z,32.25
2018-09-21T11:36:26.739Z,32.28
2018-09-21T11:37:26.747Z,32.23
2018-09-21T11:38:26.752Z,32.21
2018-09-21T11:39:26.759Z,32.26
2018-09-21T11:40:26.260Z,32.25
2018-09-21T11:41:26.774Z,32.29
2018-09-21T11:42:26.781Z,32.23
2018-09-21T11:43:26.532Z,32.25
2018-09-21T11:44:26.535Z,32.23
2018-09-21T11:45:26.796Z,32.18
2018-09-21T11:46:26.802Z,32.14
2018-09-21T11:47:27.436Z,32.18
2018-09-21T11:48:26.810Z,32.25
2018-09-21T11:49:26.563Z,32.25
2018-09-21T11:50:41.494Z,32.3
2018-09-21T11:51:26.826Z,32.23
2018-09-21T11:52:26.590Z,32.37
2018-09-21T11:53:26.840Z,32.32
2018-09-21T11:54:26.842Z,32.41
2018-09-21T11:55:26.850Z,32.35
2018-09-21T11:56:26.860Z,32.3
2018-09-21T11:57:26.610Z,32.35
2018-09-21T11:58:26.620Z,32.4
2018-09-21T11:59:26.619Z,32.3
2018-09-21T12:00:26.880Z,32.41
2018-09-21T12:01:26.634Z,32.48
2018-09-21T12:02:26.896Z,32.51
2018-09-21T12:03:26.898Z,32.57
2018-09-21T12:04:26.904Z,32.52
2018-09-21T12:05:26.909Z,32.63
2018-09-21T12:06:26.920Z,32.67
2018-09-21T12:07:26.917Z,32.62
2018-09-21T12:08:26.924Z,32.52
2018-09-21T12:09:26.928Z,32.56
2018-09-21T12:10:27.020Z,32.57
2018-09-21T12:11:26.689Z,32.55
2018-09-21T12:12:26.947Z,32.56
2018-09-21T12:13:26.952Z,32.56
2018-09-21T12:14:26.958Z,32.55
2018-09-21T12:15:26.979Z,32.69
2018-09-21T12:16:26.970Z,32.63
2018-09-21T12:17:26.978Z,32.74
2018-09-21T12:18:26.981Z,32.75
2018-09-21T12:19:26.738Z,32.74
2018-09-21T12:20:27.000Z,32.65
2018-09-21T12:21:27.000Z,32.7
2018-09-21T12:22:27.004Z,32.7
2018-09-21T12:23:27.019Z,32.55
2018-09-21T12:24:27.031Z,32.6
2018-09-21T12:25:27.027Z,32.43
2018-09-21T12:26:27.028Z,32.56
2018-09-21T12:27:27.033Z,32.57
2018-09-21T12:28:27.039Z,32.41
2018-09-21T12:29:27.054Z,32.5
2018-09-21T12:30:26.928Z,32.47
2018-09-21T12:31:27.059Z,32.55
2018-09-21T12:32:26.812Z,32.7
2018-09-21T12:33:27.068Z,32.85
2018-09-21T12:34:27.079Z,32.77
2018-09-21T12:35:26.833Z,32.87
2018-09-21T12:36:27.371Z,32.93
2018-09-21T12:37:27.095Z,32.92
2018-09-21T12:38:27.113Z,32.96
2018-09-21T12:39:27.112Z,32.87
2018-09-21T12:40:27.119Z,32.81
2018-09-21T12:41:27.115Z,32.75
2018-09-21T12:42:27.181Z,32.72
2018-09-21T12:43:26.877Z,32.77
2018-09-21T12:44:27.200Z,32.65
2018-09-21T12:45:26.887Z,32.57
2018-09-21T12:46:27.153Z,32.56
2018-09-21T12:47:27.151Z,32.52
2018-09-21T12:48:27.157Z,32.57
2018-09-21T12:49:27.169Z,32.55
2018-09-21T12:50:27.423Z,32.59
2018-09-21T12:51:27.179Z,32.56
2018-09-21T12:52:26.938Z,32.67
2018-09-21T12:53:27.189Z,32.74
2018-09-21T12:54:27.191Z,32.82
2018-09-21T12:55:27.198Z,32.79